sensor_id;sensor_type;location;lat;lon;timestamp;pressure;altitude;pressure_sealevel;temperature;humidity
49311;BME280;35177;45.900;5.946;2022-07-05T00:00:09;97832.16;;;18.19;100.00
49311;BME280;35177;45.900;5.946;2022-07-05T00:02:36;97837.03;;;18.22;100.00
49311;BME280;35177;45.900;5.946;2022-07-05T00:05:01;97835.38;;;18.21;100.00
49311;BME280;35177;45.900;5.946;2022-07-05T00:07:27;97842.44;;;18.15;100.00
49311;BME280;35177;45.900;5.946;2022-07-05T00:09:55;97835.56;;;18.12;100.00
49311;BME280;35177;45.900;5.946;2022-07-05T00:12:27;97834.84;;;18.16;100.00
49311;BME280;35177;45.900;5.946;2022-07-05T00:14:53;97833.50;;;18.25;100.00
49311;BME280;35177;45.900;5.946;2022-07-05T00:17:19;97836.13;;;18.18;100.00
49311;BME280;35177;45.900;5.946;2022-07-05T00:19:45;97837.91;;;17.82;100.00
49311;BME280;35177;45.900;5.946;2022-07-05T00:22:11;97849.44;;;17.64;100.00
49311;BME280;35177;45.900;5.946;2022-07-05T00:24:36;97849.00;;;17.62;100.00
49311;BME280;35177;45.900;5.946;2022-07-05T00:27:02;97845.78;;;17.76;100.00
49311;BME280;35177;45.900;5.946;2022-07-05T00:29:28;97850.81;;;17.71;100.00
49311;BME280;35177;45.900;5.946;2022-07-05T00:31:54;97844.78;;;17.69;100.00
49311;BME280;35177;45.900;5.946;2022-07-05T00:34:20;97850.41;;;17.56;100.00
49311;BME280;35177;45.900;5.946;2022-07-05T00:36:46;97847.94;;;17.55;100.00
49311;BME280;35177;45.900;5.946;2022-07-05T00:39:12;97851.13;;;17.53;100.00
49311;BME280;35177;45.900;5.946;2022-07-05T00:41:37;97852.91;;;17.45;100.00
49311;BME280;35177;45.900;5.946;2022-07-05T00:44:06;97856.41;;;17.42;100.00
49311;BME280;35177;45.900;5.946;2022-07-05T00:46:32;97855.09;;;17.52;100.00
49311;BME280;35177;45.900;5.946;2022-07-05T00:48:58;97853.47;;;17.51;100.00
49311;BME280;35177;45.900;5.946;2022-07-05T00:51:26;97849.88;;;17.38;100.00
49311;BME280;35177;45.900;5.946;2022-07-05T00:53:54;97848.78;;;17.55;100.00
49311;BME280;35177;45.900;5.946;2022-07-05T00:56:23;97846.47;;;17.45;100.00
49311;BME280;35177;45.900;5.946;2022-07-05T00:58:49;97851.56;;;17.67;100.00
49311;BME280;35177;45.900;5.946;2022-07-05T01:01:16;97849.59;;;17.84;100.00
49311;BME280;35177;45.900;5.946;2022-07-05T01:03:42;97847.53;;;17.81;100.00
49311;BME280;35177;45.900;5.946;2022-07-05T01:06:10;97841.31;;;17.47;100.00
49311;BME280;35177;45.900;5.946;2022-07-05T01:08:40;97840.03;;;17.44;100.00
49311;BME280;35177;45.900;5.946;2022-07-05T01:11:07;97839.47;;;17.39;100.00
49311;BME280;35177;45.900;5.946;2022-07-05T01:13:34;97846.53;;;17.20;100.00
49311;BME280;35177;45.900;5.946;2022-07-05T01:16:00;97845.72;;;17.20;100.00
49311;BME280;35177;45.900;5.946;2022-07-05T01:18:26;97847.56;;;17.15;100.00
49311;BME280;35177;45.900;5.946;2022-07-05T01:20:52;97847.72;;;16.94;100.00
49311;BME280;35177;45.900;5.946;2022-07-05T01:23:18;97857.03;;;16.86;100.00
49311;BME280;35177;45.900;5.946;2022-07-05T01:25:46;97849.91;;;16.89;100.00
49311;BME280;35177;45.900;5.946;2022-07-05T01:28:11;97849.00;;;16.97;100.00
49311;BME280;35177;45.900;5.946;2022-07-05T01:30:39;97849.72;;;16.94;100.00
49311;BME280;35177;45.900;5.946;2022-07-05T01:33:06;97852.88;;;17.05;100.00
49311;BME280;35177;45.900;5.946;2022-07-05T01:35:32;97850.53;;;17.07;100.00
49311;BME280;35177;45.900;5.946;2022-07-05T01:37:58;97854.03;;;17.04;100.00
49311;BME280;35177;45.900;5.946;2022-07-05T01:40:24;97853.94;;;17.00;100.00
49311;BME280;35177;45.900;5.946;2022-07-05T01:42:49;97848.50;;;16.82;100.00
49311;BME280;35177;45.900;5.946;2022-07-05T01:45:15;97856.47;;;16.80;100.00
49311;BME280;35177;45.900;5.946;2022-07-05T01:48:02;97860.47;;;16.92;100.00
49311;BME280;35177;45.900;5.946;2022-07-05T01:50:29;97858.91;;;16.82;100.00
49311;BME280;35177;45.900;5.946;2022-07-05T01:52:58;97864.41;;;16.91;100.00
49311;BME280;35177;45.900;5.946;2022-07-05T01:55:26;97858.31;;;16.89;100.00
49311;BME280;35177;45.900;5.946;2022-07-05T01:57:51;97858.94;;;17.07;100.00
49311;BME280;35177;45.900;5.946;2022-07-05T02:00:17;97864.66;;;17.10;100.00
49311;BME280;35177;45.900;5.946;2022-07-05T02:02:42;97857.50;;;17.13;100.00
49311;BME280;35177;45.900;5.946;2022-07-05T02:05:09;97866.78;;;17.01;100.00
49311;BME280;35177;45.900;5.946;2022-07-05T02:07:35;97864.19;;;16.96;100.00
49311;BME280;35177;45.900;5.946;2022-07-05T02:10:00;97867.09;;;17.12;100.00
49311;BME280;35177;45.900;5.946;2022-07-05T02:12:26;97861.16;;;17.13;100.00
49311;BME280;35177;45.900;5.946;2022-07-05T02:14:51;97864.53;;;16.82;100.00
49311;BME280;35177;45.900;5.946;2022-07-05T02:17:17;97870.16;;;16.94;100.00
49311;BME280;35177;45.900;5.946;2022-07-05T02:19:42;97866.53;;;16.81;100.00
49311;BME280;35177;45.900;5.946;2022-07-05T02:22:08;97866.72;;;16.89;100.00
49311;BME280;35177;45.900;5.946;2022-07-05T02:24:33;97868.03;;;16.91;100.00
49311;BME280;35177;45.900;5.946;2022-07-05T02:26:59;97860.59;;;16.95;100.00
49311;BME280;35177;45.900;5.946;2022-07-05T02:29:25;97875.31;;;17.05;100.00
49311;BME280;35177;45.900;5.946;2022-07-05T02:31:50;97874.00;;;17.14;100.00
49311;BME280;35177;45.900;5.946;2022-07-05T02:34:16;97867.06;;;17.24;100.00
49311;BME280;35177;45.900;5.946;2022-07-05T02:36:41;97866.63;;;17.22;100.00
49311;BME280;35177;45.900;5.946;2022-07-05T02:39:07;97863.00;;;17.22;100.00
49311;BME280;35177;45.900;5.946;2022-07-05T02:41:32;97866.19;;;17.08;100.00
49311;BME280;35177;45.900;5.946;2022-07-05T02:43:57;97863.13;;;16.88;100.00
49311;BME280;35177;45.900;5.946;2022-07-05T02:46:23;97863.84;;;16.85;100.00
49311;BME280;35177;45.900;5.946;2022-07-05T02:48:50;97870.75;;;17.00;100.00
49311;BME280;35177;45.900;5.946;2022-07-05T02:51:16;97866.97;;;17.08;100.00
49311;BME280;35177;45.900;5.946;2022-07-05T02:53:41;97868.38;;;17.14;100.00
49311;BME280;35177;45.900;5.946;2022-07-05T02:56:07;97875.97;;;17.26;100.00
49311;BME280;35177;45.900;5.946;2022-07-05T02:58:32;97869.97;;;17.40;100.00
49311;BME280;35177;45.900;5.946;2022-07-05T03:00:58;97877.59;;;17.27;100.00
49311;BME280;35177;45.900;5.946;2022-07-05T03:03:24;97874.97;;;16.94;100.00
49311;BME280;35177;45.900;5.946;2022-07-05T03:05:49;97881.59;;;16.77;100.00
49311;BME280;35177;45.900;5.946;2022-07-05T03:08:15;97882.91;;;16.92;100.00
49311;BME280;35177;45.900;5.946;2022-07-05T03:10:40;97879.59;;;16.90;100.00
49311;BME280;35177;45.900;5.946;2022-07-05T03:13:06;97878.91;;;17.05;100.00
49311;BME280;35177;45.900;5.946;2022-07-05T03:15:31;97889.66;;;17.03;100.00
49311;BME280;35177;45.900;5.946;2022-07-05T03:17:57;97887.75;;;16.70;100.00
49311;BME280;35177;45.900;5.946;2022-07-05T03:20:23;97885.19;;;16.77;100.00
49311;BME280;35177;45.900;5.946;2022-07-05T03:22:48;97879.94;;;16.88;100.00
49311;BME280;35177;45.900;5.946;2022-07-05T03:25:14;97875.97;;;16.77;100.00
49311;BME280;35177;45.900;5.946;2022-07-05T03:27:39;97880.41;;;16.78;100.00
49311;BME280;35177;45.900;5.946;2022-07-05T03:30:05;97889.88;;;16.85;100.00
49311;BME280;35177;45.900;5.946;2022-07-05T03:32:31;97894.31;;;16.86;100.00
49311;BME280;35177;45.900;5.946;2022-07-05T03:34:57;97896.31;;;16.98;100.00
49311;BME280;35177;45.900;5.946;2022-07-05T03:37:22;97900.84;;;16.91;100.00
49311;BME280;35177;45.900;5.946;2022-07-05T03:39:48;97901.22;;;17.01;100.00
49311;BME280;35177;45.900;5.946;2022-07-05T03:42:13;97902.41;;;17.13;100.00
49311;BME280;35177;45.900;5.946;2022-07-05T03:44:39;97897.72;;;17.17;100.00
49311;BME280;35177;45.900;5.946;2022-07-05T03:47:04;97898.06;;;17.15;100.00
49311;BME280;35177;45.900;5.946;2022-07-05T03:49:30;97907.44;;;17.07;100.00
49311;BME280;35177;45.900;5.946;2022-07-05T03:51:55;97912.94;;;17.04;100.00
49311;BME280;35177;45.900;5.946;2022-07-05T03:54:21;97911.28;;;17.02;100.00
49311;BME280;35177;45.900;5.946;2022-07-05T03:56:46;97921.50;;;16.74;100.00
49311;BME280;35177;45.900;5.946;2022-07-05T03:59:12;97920.81;;;16.77;100.00
49311;BME280;35177;45.900;5.946;2022-07-05T04:01:37;97918.59;;;16.82;100.00
49311;BME280;35177;45.900;5.946;2022-07-05T04:04:03;97929.34;;;16.80;100.00
49311;BME280;35177;45.900;5.946;2022-07-05T04:06:29;97923.03;;;16.83;100.00
49311;BME280;35177;45.900;5.946;2022-07-05T04:08:54;97926.22;;;16.94;100.00
49311;BME280;35177;45.900;5.946;2022-07-05T04:11:20;97924.47;;;17.02;100.00
49311;BME280;35177;45.900;5.946;2022-07-05T04:13:45;97931.00;;;16.81;100.00
49311;BME280;35177;45.900;5.946;2022-07-05T04:16:11;97932.69;;;16.49;100.00
49311;BME280;35177;45.900;5.946;2022-07-05T04:18:36;97931.16;;;16.51;100.00
49311;BME280;35177;45.900;5.946;2022-07-05T04:21:02;97926.56;;;17.42;100.00
49311;BME280;35177;45.900;5.946;2022-07-05T04:23:28;97920.94;;;17.95;100.00
49311;BME280;35177;45.900;5.946;2022-07-05T04:25:54;97924.03;;;18.19;100.00
49311;BME280;35177;45.900;5.946;2022-07-05T04:28:19;97930.09;;;18.21;100.00
49311;BME280;35177;45.900;5.946;2022-07-05T04:30:45;97944.34;;;17.09;100.00
49311;BME280;35177;45.900;5.946;2022-07-05T04:33:11;97946.53;;;16.79;100.00
49311;BME280;35177;45.900;5.946;2022-07-05T04:35:36;97945.31;;;16.67;100.00
49311;BME280;35177;45.900;5.946;2022-07-05T04:38:02;97949.34;;;16.91;100.00
49311;BME280;35177;45.900;5.946;2022-07-05T04:40:27;97945.75;;;17.28;100.00
49311;BME280;35177;45.900;5.946;2022-07-05T04:42:53;97944.28;;;17.71;100.00
49311;BME280;35177;45.900;5.946;2022-07-05T04:45:18;97946.28;;;18.11;100.00
49311;BME280;35177;45.900;5.946;2022-07-05T04:47:44;97945.09;;;18.41;100.00
49311;BME280;35177;45.900;5.946;2022-07-05T04:50:09;97943.16;;;18.57;100.00
49311;BME280;35177;45.900;5.946;2022-07-05T04:52:35;97954.81;;;18.15;100.00
49311;BME280;35177;45.900;5.946;2022-07-05T04:55:01;97957.56;;;17.87;100.00
49311;BME280;35177;45.900;5.946;2022-07-05T04:57:26;97957.78;;;17.53;100.00
49311;BME280;35177;45.900;5.946;2022-07-05T04:59:52;97962.47;;;17.49;100.00
49311;BME280;35177;45.900;5.946;2022-07-05T05:02:17;97964.06;;;17.50;100.00
49311;BME280;35177;45.900;5.946;2022-07-05T05:04:43;97964.94;;;17.26;100.00
49311;BME280;35177;45.900;5.946;2022-07-05T05:07:09;97963.66;;;17.23;100.00
49311;BME280;35177;45.900;5.946;2022-07-05T05:09:34;97965.72;;;17.26;100.00
49311;BME280;35177;45.900;5.946;2022-07-05T05:12:00;97973.34;;;17.38;100.00
49311;BME280;35177;45.900;5.946;2022-07-05T05:14:26;97973.31;;;17.50;100.00
49311;BME280;35177;45.900;5.946;2022-07-05T05:16:51;97972.41;;;17.46;100.00
49311;BME280;35177;45.900;5.946;2022-07-05T05:19:17;97974.38;;;17.46;100.00
49311;BME280;35177;45.900;5.946;2022-07-05T05:21:42;97975.66;;;17.48;100.00
49311;BME280;35177;45.900;5.946;2022-07-05T05:24:07;97984.78;;;17.58;100.00
49311;BME280;35177;45.900;5.946;2022-07-05T05:26:33;97976.09;;;17.75;100.00
49311;BME280;35177;45.900;5.946;2022-07-05T05:28:59;97983.25;;;17.60;100.00
49311;BME280;35177;45.900;5.946;2022-07-05T05:31:24;97975.50;;;17.70;100.00
49311;BME280;35177;45.900;5.946;2022-07-05T05:33:50;97979.59;;;17.85;100.00
49311;BME280;35177;45.900;5.946;2022-07-05T05:36:15;97979.19;;;18.11;100.00
49311;BME280;35177;45.900;5.946;2022-07-05T05:38:41;97978.88;;;18.28;100.00
49311;BME280;35177;45.900;5.946;2022-07-05T05:41:06;97983.63;;;18.40;100.00
49311;BME280;35177;45.900;5.946;2022-07-05T05:43:32;97972.63;;;18.63;100.00
49311;BME280;35177;45.900;5.946;2022-07-05T05:45:58;97982.41;;;18.54;100.00
49311;BME280;35177;45.900;5.946;2022-07-05T05:48:24;97982.84;;;18.40;100.00
49311;BME280;35177;45.900;5.946;2022-07-05T05:50:49;97974.03;;;18.41;100.00
49311;BME280;35177;45.900;5.946;2022-07-05T05:53:16;97990.16;;;18.44;100.00
49311;BME280;35177;45.900;5.946;2022-07-05T05:55:41;97990.75;;;18.50;100.00
49311;BME280;35177;45.900;5.946;2022-07-05T05:58:20;97985.59;;;18.52;100.00
49311;BME280;35177;45.900;5.946;2022-07-05T06:00:47;97990.59;;;18.30;100.00
49311;BME280;35177;45.900;5.946;2022-07-05T06:03:16;97997.47;;;18.05;100.00
49311;BME280;35177;45.900;5.946;2022-07-05T06:05:42;98002.06;;;17.97;100.00
49311;BME280;35177;45.900;5.946;2022-07-05T06:08:08;98002.13;;;18.13;100.00
49311;BME280;35177;45.900;5.946;2022-07-05T06:10:34;98001.94;;;18.34;100.00
49311;BME280;35177;45.900;5.946;2022-07-05T06:13:04;97997.47;;;18.61;100.00
49311;BME280;35177;45.900;5.946;2022-07-05T06:15:30;97992.84;;;18.98;100.00
49311;BME280;35177;45.900;5.946;2022-07-05T06:17:56;97997.38;;;19.18;100.00
49311;BME280;35177;45.900;5.946;2022-07-05T06:20:26;98001.09;;;19.54;100.00
49311;BME280;35177;45.900;5.946;2022-07-05T06:22:53;97994.47;;;19.82;100.00
49311;BME280;35177;45.900;5.946;2022-07-05T06:25:18;97986.31;;;19.93;100.00
49311;BME280;35177;45.900;5.946;2022-07-05T06:27:46;97985.91;;;20.11;100.00
49311;BME280;35177;45.900;5.946;2022-07-05T06:30:16;97988.84;;;20.18;100.00
49311;BME280;35177;45.900;5.946;2022-07-05T06:32:44;97986.84;;;19.99;100.00
49311;BME280;35177;45.900;5.946;2022-07-05T06:35:10;97985.66;;;20.00;100.00
49311;BME280;35177;45.900;5.946;2022-07-05T06:37:50;97980.16;;;19.87;100.00
49311;BME280;35177;45.900;5.946;2022-07-05T06:40:22;97989.34;;;19.84;100.00
49311;BME280;35177;45.900;5.946;2022-07-05T06:42:48;97994.34;;;19.75;100.00
49311;BME280;35177;45.900;5.946;2022-07-05T06:45:14;97992.88;;;19.81;100.00
49311;BME280;35177;45.900;5.946;2022-07-05T06:47:40;97992.22;;;19.88;100.00
49311;BME280;35177;45.900;5.946;2022-07-05T06:50:06;97994.25;;;19.87;100.00
49311;BME280;35177;45.900;5.946;2022-07-05T06:52:32;97991.50;;;19.91;100.00
49311;BME280;35177;45.900;5.946;2022-07-05T06:54:59;97998.66;;;19.88;100.00
49311;BME280;35177;45.900;5.946;2022-07-05T06:57:25;98002.25;;;19.85;100.00
49311;BME280;35177;45.900;5.946;2022-07-05T06:59:51;98003.00;;;20.02;100.00
49311;BME280;35177;45.900;5.946;2022-07-05T07:02:17;98001.84;;;20.22;100.00
49311;BME280;35177;45.900;5.946;2022-07-05T07:04:45;97996.72;;;20.48;100.00
49311;BME280;35177;45.900;5.946;2022-07-05T07:07:11;98000.03;;;20.53;100.00
49311;BME280;35177;45.900;5.946;2022-07-05T07:09:58;98002.78;;;20.69;100.00
49311;BME280;35177;45.900;5.946;2022-07-05T07:12:24;98009.91;;;20.63;100.00
49311;BME280;35177;45.900;5.946;2022-07-05T07:14:50;98006.22;;;20.79;100.00
49311;BME280;35177;45.900;5.946;2022-07-05T07:17:15;98005.91;;;20.84;100.00
49311;BME280;35177;45.900;5.946;2022-07-05T07:19:41;98013.50;;;20.80;100.00
49311;BME280;35177;45.900;5.946;2022-07-05T07:22:06;98006.75;;;20.84;100.00
49311;BME280;35177;45.900;5.946;2022-07-05T07:24:32;98005.97;;;20.88;100.00
49311;BME280;35177;45.900;5.946;2022-07-05T07:26:57;98007.25;;;21.13;100.00
49311;BME280;35177;45.900;5.946;2022-07-05T07:29:34;98002.59;;;21.25;100.00
49311;BME280;35177;45.900;5.946;2022-07-05T07:32:02;97997.78;;;21.48;100.00
49311;BME280;35177;45.900;5.946;2022-07-05T07:34:28;97999.75;;;21.48;100.00
49311;BME280;35177;45.900;5.946;2022-07-05T07:36:55;97995.34;;;21.50;100.00
49311;BME280;35177;45.900;5.946;2022-07-05T07:39:21;98002.53;;;21.67;100.00
49311;BME280;35177;45.900;5.946;2022-07-05T07:41:47;98009.34;;;21.66;100.00
49311;BME280;35177;45.900;5.946;2022-07-05T07:44:13;98009.53;;;21.77;100.00
49311;BME280;35177;45.900;5.946;2022-07-05T07:46:39;98008.84;;;21.84;100.00
49311;BME280;35177;45.900;5.946;2022-07-05T07:49:05;98008.34;;;21.78;100.00
49311;BME280;35177;45.900;5.946;2022-07-05T07:51:31;98015.63;;;21.79;100.00
49311;BME280;35177;45.900;5.946;2022-07-05T07:53:56;98008.13;;;21.91;100.00
49311;BME280;35177;45.900;5.946;2022-07-05T07:56:22;98005.31;;;22.21;100.00
49311;BME280;35177;45.900;5.946;2022-07-05T07:58:47;98012.91;;;22.17;100.00
49311;BME280;35177;45.900;5.946;2022-07-05T08:01:13;98019.59;;;22.02;100.00
49311;BME280;35177;45.900;5.946;2022-07-05T08:03:42;98017.56;;;22.02;100.00
49311;BME280;35177;45.900;5.946;2022-07-05T08:06:09;98015.22;;;22.08;100.00
49311;BME280;35177;45.900;5.946;2022-07-05T08:08:40;98012.34;;;22.04;100.00
49311;BME280;35177;45.900;5.946;2022-07-05T08:11:08;98007.66;;;21.89;100.00
49311;BME280;35177;45.900;5.946;2022-07-05T08:13:34;98011.34;;;21.89;100.00
49311;BME280;35177;45.900;5.946;2022-07-05T08:16:00;98008.50;;;21.89;100.00
49311;BME280;35177;45.900;5.946;2022-07-05T08:18:25;98010.03;;;21.83;100.00
49311;BME280;35177;45.900;5.946;2022-07-05T08:21:10;98012.41;;;21.81;100.00
49311;BME280;35177;45.900;5.946;2022-07-05T08:23:54;98005.97;;;21.80;100.00
49311;BME280;35177;45.900;5.946;2022-07-05T08:26:20;98009.91;;;21.76;100.00
49311;BME280;35177;45.900;5.946;2022-07-05T08:28:45;98012.31;;;21.74;100.00
49311;BME280;35177;45.900;5.946;2022-07-05T08:31:11;98001.72;;;21.67;100.00
49311;BME280;35177;45.900;5.946;2022-07-05T08:33:36;98007.09;;;21.76;100.00
49311;BME280;35177;45.900;5.946;2022-07-05T08:36:02;98008.97;;;21.95;100.00
49311;BME280;35177;45.900;5.946;2022-07-05T08:38:27;98009.84;;;21.99;100.00
49311;BME280;35177;45.900;5.946;2022-07-05T08:40:55;98009.84;;;21.99;100.00
49311;BME280;35177;45.900;5.946;2022-07-05T08:43:22;97999.16;;;22.15;100.00
49311;BME280;35177;45.900;5.946;2022-07-05T08:45:49;97995.63;;;22.22;100.00
49311;BME280;35177;45.900;5.946;2022-07-05T08:48:19;97998.56;;;22.29;100.00
49311;BME280;35177;45.900;5.946;2022-07-05T08:50:46;98002.44;;;22.18;100.00
49311;BME280;35177;45.900;5.946;2022-07-05T08:53:24;98004.13;;;22.22;100.00
49311;BME280;35177;45.900;5.946;2022-07-05T08:55:50;97993.22;;;22.24;100.00
49311;BME280;35177;45.900;5.946;2022-07-05T08:58:15;97997.56;;;22.45;100.00
49311;BME280;35177;45.900;5.946;2022-07-05T09:00:42;97995.50;;;22.42;100.00
49311;BME280;35177;45.900;5.946;2022-07-05T09:03:08;97995.28;;;22.58;100.00
49311;BME280;35177;45.900;5.946;2022-07-05T09:05:43;97988.50;;;22.66;100.00
49311;BME280;35177;45.900;5.946;2022-07-05T09:08:13;97990.13;;;22.67;100.00
49311;BME280;35177;45.900;5.946;2022-07-05T09:10:43;97994.56;;;22.65;100.00
49311;BME280;35177;45.900;5.946;2022-07-05T09:13:08;97988.91;;;22.65;100.00
49311;BME280;35177;45.900;5.946;2022-07-05T09:15:38;97980.59;;;22.83;100.00
49311;BME280;35177;45.900;5.946;2022-07-05T09:18:03;97976.66;;;22.91;100.00
49311;BME280;35177;45.900;5.946;2022-07-05T09:20:29;97984.03;;;23.03;100.00
49311;BME280;35177;45.900;5.946;2022-07-05T09:22:55;97988.81;;;22.95;100.00
49311;BME280;35177;45.900;5.946;2022-07-05T09:25:29;97980.41;;;23.02;100.00
49311;BME280;35177;45.900;5.946;2022-07-05T09:28:02;97971.63;;;23.15;100.00
49311;BME280;35177;45.900;5.946;2022-07-05T09:33:06;97960.34;;;23.74;100.00
49311;BME280;35177;45.900;5.946;2022-07-05T09:35:34;97969.59;;;23.64;100.00
49311;BME280;35177;45.900;5.946;2022-07-05T09:38:00;97970.19;;;23.91;97.98
49311;BME280;35177;45.900;5.946;2022-07-05T09:40:30;97959.38;;;24.15;100.00
49311;BME280;35177;45.900;5.946;2022-07-05T09:43:15;97957.78;;;24.17;96.89
49311;BME280;35177;45.900;5.946;2022-07-05T09:46:02;97967.25;;;24.58;94.26
49311;BME280;35177;45.900;5.946;2022-07-05T09:48:30;97960.81;;;24.61;96.12
49311;BME280;35177;45.900;5.946;2022-07-05T09:51:12;97964.75;;;24.38;95.04
49311;BME280;35177;45.900;5.946;2022-07-05T09:53:52;97971.94;;;24.14;96.10
49311;BME280;35177;45.900;5.946;2022-07-05T09:56:18;97966.16;;;24.91;92.33
49311;BME280;35177;45.900;5.946;2022-07-05T09:58:44;97961.78;;;25.41;89.95
49311;BME280;35177;45.900;5.946;2022-07-05T10:01:27;97961.31;;;25.82;98.03
49311;BME280;35177;45.900;5.946;2022-07-05T10:03:57;97966.09;;;26.21;87.91
49311;BME280;35177;45.900;5.946;2022-07-05T10:06:25;97963.66;;;26.30;80.61
49311;BME280;35177;45.900;5.946;2022-07-05T10:08:52;97963.22;;;26.36;75.18
49311;BME280;35177;45.900;5.946;2022-07-05T10:11:18;97956.06;;;26.87;84.06
49311;BME280;35177;45.900;5.946;2022-07-05T10:13:49;97967.13;;;26.71;81.77
49311;BME280;35177;45.900;5.946;2022-07-05T10:16:16;97962.44;;;27.06;66.75
49311;BME280;35177;45.900;5.946;2022-07-05T10:18:46;97955.66;;;27.45;68.09
49311;BME280;35177;45.900;5.946;2022-07-05T10:21:14;97947.22;;;27.76;66.76
49311;BME280;35177;45.900;5.946;2022-07-05T10:23:44;97953.53;;;27.95;68.73
49311;BME280;35177;45.900;5.946;2022-07-05T10:26:14;97956.25;;;28.09;76.95
49311;BME280;35177;45.900;5.946;2022-07-05T10:28:41;97953.69;;;28.53;66.35
49311;BME280;35177;45.900;5.946;2022-07-05T10:31:10;97942.47;;;28.69;58.46
49311;BME280;35177;45.900;5.946;2022-07-05T10:33:37;97946.19;;;28.66;60.44
49311;BME280;35177;45.900;5.946;2022-07-05T10:36:04;97950.53;;;28.44;59.00
49311;BME280;35177;45.900;5.946;2022-07-05T10:38:35;97954.41;;;28.61;58.53
49311;BME280;35177;45.900;5.946;2022-07-05T10:41:03;97957.84;;;28.48;54.01
49311;BME280;35177;45.900;5.946;2022-07-05T10:43:31;97949.38;;;28.72;57.07
49311;BME280;35177;45.900;5.946;2022-07-05T10:45:56;97957.44;;;28.81;65.68
49311;BME280;35177;45.900;5.946;2022-07-05T10:48:23;97959.56;;;29.00;57.70
49311;BME280;35177;45.900;5.946;2022-07-05T10:51:00;97958.56;;;28.87;61.50
49311;BME280;35177;45.900;5.946;2022-07-05T10:56:20;97953.97;;;29.21;51.09
49311;BME280;35177;45.900;5.946;2022-07-05T10:58:46;97946.69;;;29.43;55.77
49311;BME280;35177;45.900;5.946;2022-07-05T11:03:38;97951.59;;;29.15;60.05
49311;BME280;35177;45.900;5.946;2022-07-05T11:06:05;97953.97;;;29.21;56.72
49311;BME280;35177;45.900;5.946;2022-07-05T11:09:13;97955.72;;;28.21;62.05
49311;BME280;35177;45.900;5.946;2022-07-05T11:11:27;97944.06;;;28.74;60.43
49311;BME280;35177;45.900;5.946;2022-07-05T11:13:52;97955.22;;;29.20;58.06
49311;BME280;35177;45.900;5.946;2022-07-05T11:16:30;97950.47;;;29.09;54.72
49311;BME280;35177;45.900;5.946;2022-07-05T11:19:09;97946.06;;;29.28;57.43
49311;BME280;35177;45.900;5.946;2022-07-05T11:21:39;97948.50;;;29.57;55.15
49311;BME280;35177;45.900;5.946;2022-07-05T11:24:21;97944.78;;;30.04;56.24
49311;BME280;35177;45.900;5.946;2022-07-05T11:26:48;97949.09;;;29.17;58.85
49311;BME280;35177;45.900;5.946;2022-07-05T11:29:46;97947.41;;;28.96;67.04
49311;BME280;35177;45.900;5.946;2022-07-05T11:32:15;97938.78;;;29.24;54.51
49311;BME280;35177;45.900;5.946;2022-07-05T11:34:46;97929.78;;;29.53;52.59
49311;BME280;35177;45.900;5.946;2022-07-05T11:37:26;97940.16;;;29.67;50.54
49311;BME280;35177;45.900;5.946;2022-07-05T11:42:33;97933.06;;;30.19;48.68
49311;BME280;35177;45.900;5.946;2022-07-05T11:45:06;97936.50;;;30.50;50.04
49311;BME280;35177;45.900;5.946;2022-07-05T11:47:33;97936.59;;;29.83;48.59
49311;BME280;35177;45.900;5.946;2022-07-05T11:49:59;97930.31;;;29.91;54.72
49311;BME280;35177;45.900;5.946;2022-07-05T11:52:30;97934.13;;;29.10;50.00
49311;BME280;35177;45.900;5.946;2022-07-05T11:54:56;97931.69;;;29.59;52.79
49311;BME280;35177;45.900;5.946;2022-07-05T11:57:22;97930.47;;;30.04;54.96
49311;BME280;35177;45.900;5.946;2022-07-05T11:59:49;97928.25;;;29.68;53.32
49311;BME280;35177;45.900;5.946;2022-07-05T12:02:15;97921.34;;;29.65;55.57
49311;BME280;35177;45.900;5.946;2022-07-05T12:04:40;97925.03;;;28.91;59.11
49311;BME280;35177;45.900;5.946;2022-07-05T12:07:12;97915.59;;;29.45;45.74
49311;BME280;35177;45.900;5.946;2022-07-05T12:09:37;97911.25;;;29.61;46.64
49311;BME280;35177;45.900;5.946;2022-07-05T12:12:23;97917.38;;;29.83;50.00
49311;BME280;35177;45.900;5.946;2022-07-05T12:15:09;97905.38;;;30.12;52.47
49311;BME280;35177;45.900;5.946;2022-07-05T12:17:35;97907.97;;;30.06;43.73
49311;BME280;35177;45.900;5.946;2022-07-05T12:20:02;97901.78;;;29.84;43.36
49311;BME280;35177;45.900;5.946;2022-07-05T12:22:32;97904.72;;;30.04;45.57
49311;BME280;35177;45.900;5.946;2022-07-05T12:24:59;97906.81;;;30.40;45.28
49311;BME280;35177;45.900;5.946;2022-07-05T12:27:27;97907.56;;;30.44;50.05
49311;BME280;35177;45.900;5.946;2022-07-05T12:29:53;97911.81;;;30.36;48.99
49311;BME280;35177;45.900;5.946;2022-07-05T12:32:19;97902.72;;;30.01;43.76
49311;BME280;35177;45.900;5.946;2022-07-05T12:34:44;97905.72;;;30.34;50.49
49311;BME280;35177;45.900;5.946;2022-07-05T12:37:10;97890.47;;;30.21;41.95
49311;BME280;35177;45.900;5.946;2022-07-05T12:39:36;97897.50;;;30.36;48.97
49311;BME280;35177;45.900;5.946;2022-07-05T12:42:01;97894.72;;;30.53;52.31
49311;BME280;35177;45.900;5.946;2022-07-05T12:44:27;97902.97;;;30.51;52.91
49311;BME280;35177;45.900;5.946;2022-07-05T12:47:03;97906.00;;;29.79;45.75
49311;BME280;35177;45.900;5.946;2022-07-05T12:49:29;97896.25;;;29.77;49.07
49311;BME280;35177;45.900;5.946;2022-07-05T12:52:03;97892.63;;;29.73;53.29
49311;BME280;35177;45.900;5.946;2022-07-05T12:54:30;97894.09;;;29.81;61.40
49311;BME280;35177;45.900;5.946;2022-07-05T12:57:17;97897.69;;;29.41;54.31
49311;BME280;35177;45.900;5.946;2022-07-05T13:00:04;97883.91;;;29.80;51.68
49311;BME280;35177;45.900;5.946;2022-07-05T13:02:56;97891.94;;;30.29;49.85
49311;BME280;35177;45.900;5.946;2022-07-05T13:05:23;97886.09;;;29.72;52.33